createdAt,value
2022-09-03T00:02:18.971Z,100551.28
2022-09-03T00:05:25.408Z,100480.69
2022-09-03T00:08:33.378Z,100546.75
2022-09-03T00:11:28.674Z,100544.97
2022-09-03T00:14:23.136Z,100523.53
2022-09-03T00:17:19.617Z,100513.75
2022-09-03T00:20:28.705Z,100514.81
2022-09-03T00:23:24.662Z,100512.56
2022-09-03T00:26:12.377Z,100543.72
2022-09-03T00:29:05.719Z,100545.03
2022-09-03T00:32:09.660Z,100536.81
2022-09-03T00:35:02.966Z,100540.97
2022-09-03T00:37:54.276Z,100506.25
2022-09-03T00:40:56.961Z,100543.56
2022-09-03T00:44:07.932Z,100533.44
2022-09-03T00:47:13.454Z,100515.59
2022-09-03T00:50:31.839Z,100527.53
2022-09-03T00:53:38.714Z,100525.34
2022-09-03T00:57:11.212Z,100521.78
2022-09-03T01:00:09.232Z,100536.84
2022-09-03T01:03:12.466Z,100501.88
2022-09-03T01:06:15.705Z,100534.59
2022-09-03T01:09:23.933Z,100462.81
2022-09-03T01:12:30.245Z,100532.81
2022-09-03T01:15:30.045Z,100491.34
2022-09-03T01:18:49.411Z,100508.50
2022-09-03T01:21:58.601Z,100497.91
2022-09-03T01:25:12.096Z,100494.22
2022-09-03T01:28:26.628Z,100538.47
2022-09-03T01:31:42.740Z,100489.44
2022-09-03T01:34:53.818Z,100543.31
2022-09-03T01:38:01.555Z,100546.19
2022-09-03T01:41:27.287Z,100528.31
2022-09-03T01:44:22.160Z,100527.13
2022-09-03T01:47:17.050Z,100501.88
2022-09-03T01:50:20.514Z,100505.84
2022-09-03T01:53:28.650Z,100538.53
2022-09-03T01:56:37.713Z,100526.19
2022-09-03T01:59:54.488Z,100493.06
2022-09-03T02:02:50.757Z,100500.59
2022-09-03T02:05:40.765Z,100508.09
2022-09-03T02:08:29.718Z,100513.78
2022-09-03T02:11:17.249Z,100513.19
2022-09-03T02:14:04.777Z,100518.78
2022-09-03T02:16:52.746Z,100481.97
2022-09-03T02:19:40.087Z,100511.53
2022-09-03T02:22:27.406Z,100474.25
2022-09-03T02:25:18.982Z,100506.34
2022-09-03T02:28:27.439Z,100476.97
2022-09-03T02:31:14.904Z,100495.06
2022-09-03T02:34:06.389Z,100498.25
2022-09-03T02:36:54.504Z,100480.16
2022-09-03T02:39:42.332Z,100497.84
2022-09-03T02:42:32.841Z,100466.81
2022-09-03T02:45:45.053Z,100458.25
2022-09-03T02:48:33.734Z,100500.75
2022-09-03T02:51:21.529Z,100486.66
2022-09-03T02:54:10.686Z,100518.66
2022-09-03T02:56:57.981Z,100505.91
2022-09-03T02:59:45.653Z,100513.94
2022-09-03T03:02:34.984Z,100500.41
2022-09-03T03:05:29.023Z,100515.63
2022-09-03T03:08:21.186Z,100508.88
2022-09-03T03:11:08.730Z,100471.84
2022-09-03T03:13:56.079Z,100481.84
2022-09-03T03:16:43.620Z,100469.25
2022-09-03T03:19:32.686Z,100479.25
2022-09-03T03:22:20.284Z,100458.25
2022-09-03T03:25:10.859Z,100463.03
2022-09-03T03:27:58.409Z,100455.31
2022-09-03T03:30:48.584Z,100471.00
2022-09-03T03:33:36.222Z,100477.88
2022-09-03T03:36:26.717Z,100509.34
2022-09-03T03:39:14.168Z,100479.81
2022-09-03T03:42:01.450Z,100473.88
2022-09-03T03:44:48.767Z,100462.59
2022-09-03T03:47:37.399Z,100457.22
2022-09-03T03:50:27.813Z,100462.28
2022-09-03T03:53:15.174Z,100458.97
2022-09-03T03:56:05.056Z,100509.88
2022-09-03T03:58:53.247Z,100473.50
2022-09-03T04:01:41.893Z,100478.50
2022-09-03T04:04:29.185Z,100451.38
2022-09-03T04:07:16.475Z,100465.84
2022-09-03T04:10:04.143Z,100443.06
2022-09-03T04:12:54.567Z,100455.69
2022-09-03T04:15:42.662Z,100472.72
2022-09-03T04:18:31.963Z,100493.47
2022-09-03T04:21:24.678Z,100499.38
2022-09-03T04:24:14.018Z,100449.25
2022-09-03T04:27:01.798Z,100470.94
2022-09-03T04:29:49.321Z,100499.38
2022-09-03T04:32:56.710Z,100451.59
2022-09-03T04:35:46.934Z,100457.88
2022-09-03T04:38:38.650Z,100494.09
2022-09-03T04:41:29.647Z,100459.31
2022-09-03T04:44:20.672Z,100478.78
2022-09-03T04:47:08.025Z,100473.78
2022-09-03T04:49:55.442Z,100438.59
2022-09-03T04:52:42.762Z,100447.56
2022-09-03T04:55:38.049Z,100490.69
2022-09-03T04:58:25.410Z,100490.16
2022-09-03T05:01:21.498Z,100484.72
2022-09-03T05:04:09.457Z,100469.69
2022-09-03T05:06:56.805Z,100475.78
2022-09-03T05:09:44.077Z,100468.03
2022-09-03T05:12:34.673Z,100475.94
2022-09-03T05:15:21.958Z,100475.59
2022-09-03T05:18:10.945Z,100464.19
2022-09-03T05:21:18.868Z,100503.81
2022-09-03T05:24:06.233Z,100497.22
2022-09-03T05:26:55.893Z,100485.63
2022-09-03T05:29:45.277Z,100481.28
2022-09-03T05:32:35.590Z,100488.19
2022-09-03T05:35:30.150Z,100480.31
2022-09-03T05:38:17.900Z,100492.72
2022-09-03T05:41:10.682Z,100483.69
2022-09-03T05:44:02.134Z,100462.50
2022-09-03T05:46:51.461Z,100507.41
2022-09-03T05:49:42.664Z,100465.66
2022-09-03T05:52:32.962Z,100494.81
2022-09-03T05:55:20.307Z,100481.31
2022-09-03T05:58:08.679Z,100499.97
2022-09-03T06:00:59.600Z,100493.25
2022-09-03T06:03:53.542Z,100495.31
2022-09-03T06:06:47.086Z,100484.03
2022-09-03T06:09:37.300Z,100508.69
2022-09-03T06:12:24.883Z,100482.16
2022-09-03T06:15:15.468Z,100497.41
2022-09-03T06:18:06.586Z,100480.16
2022-09-03T06:20:57.720Z,100492.31
2022-09-03T06:23:52.900Z,100509.69
2022-09-03T06:26:43.804Z,100477.22
2022-09-03T06:29:35.507Z,100478.69
2022-09-03T06:32:25.703Z,100494.38
2022-09-03T06:35:19.001Z,100494.88
2022-09-03T06:38:06.575Z,100507.81
2022-09-03T06:41:02.141Z,100482.00
2022-09-03T06:44:11.348Z,100512.50
2022-09-03T06:47:01.862Z,100480.03
2022-09-03T06:49:49.973Z,100493.22
2022-09-03T06:52:37.315Z,100488.44
2022-09-03T06:55:27.710Z,100480.84
2022-09-03T06:58:16.937Z,100507.47
2022-09-03T07:01:12.887Z,100515.06
2022-09-03T07:04:03.482Z,100470.25
2022-09-03T07:06:50.855Z,100507.69
2022-09-03T07:09:39.792Z,100481.06
2022-09-03T07:12:27.294Z,100483.44
2022-09-03T07:15:16.183Z,100527.38
2022-09-03T07:18:07.552Z,100500.88
2022-09-03T07:21:06.027Z,100529.63
2022-09-03T07:23:55.882Z,100502.41
2022-09-03T07:26:50.765Z,100529.69
2022-09-03T07:29:38.070Z,100470.72
2022-09-03T07:32:25.394Z,100489.16
2022-09-03T07:35:13.698Z,100532.25
2022-09-03T07:38:00.921Z,100536.84
2022-09-03T07:40:48.151Z,100530.19
2022-09-03T07:43:43.610Z,100528.69
2022-09-03T07:46:33.903Z,100535.00
2022-09-03T07:49:21.850Z,100537.41
2022-09-03T07:52:12.199Z,100538.81
2022-09-03T07:55:02.921Z,100537.56
2022-09-03T07:57:50.226Z,100543.31
2022-09-03T08:00:37.549Z,100549.97
2022-09-03T08:03:25.205Z,100543.66
2022-09-03T08:06:13.708Z,100546.06
2022-09-03T08:09:05.658Z,100549.16
2022-09-03T08:11:53.095Z,100556.47
2022-09-03T08:14:40.361Z,100564.13
2022-09-03T08:17:27.693Z,100562.03
2022-09-03T08:20:15.926Z,100564.03
2022-09-03T08:23:03.511Z,100576.97
2022-09-03T08:26:01.312Z,100568.63
2022-09-03T08:28:49.246Z,100576.00
2022-09-03T08:31:37.050Z,100575.31
2022-09-03T08:34:24.955Z,100579.78
2022-09-03T08:37:13.046Z,100583.78
2022-09-03T08:40:00.417Z,100581.97
2022-09-03T08:43:17.265Z,100580.25
2022-09-03T08:46:04.700Z,100579.50
2022-09-03T08:48:53.104Z,100584.38
2022-09-03T08:51:44.045Z,100581.56
2022-09-03T08:54:32.815Z,100579.56
2022-09-03T08:57:21.825Z,100579.50
2022-09-03T09:00:09.577Z,100585.47
2022-09-03T09:03:09.912Z,100593.41
2022-09-03T09:06:16.848Z,100588.72
2022-09-03T09:09:28.508Z,100590.88
2022-09-03T09:12:28.721Z,100592.19
2022-09-03T09:15:36.467Z,100589.88
2022-09-03T09:18:37.157Z,100595.03
2022-09-03T09:21:30.002Z,100593.50
2022-09-03T09:24:26.354Z,100590.88
2022-09-03T09:27:17.202Z,100588.63
2022-09-03T09:30:06.341Z,100577.97
2022-09-03T09:32:53.573Z,100567.97
2022-09-03T09:35:42.946Z,100578.09
2022-09-03T09:38:32.793Z,100584.28
2022-09-03T09:41:28.990Z,100589.97
2022-09-03T09:44:21.019Z,100582.19
2022-09-03T09:47:31.591Z,100578.19
2022-09-03T09:50:26.090Z,100580.56
2022-09-03T09:53:17.825Z,100574.50
2022-09-03T09:56:05.689Z,100577.09
2022-09-03T09:59:07.529Z,100579.25
2022-09-03T10:02:07.689Z,100581.88
2022-09-03T10:05:02.277Z,100584.38
2022-09-03T10:07:56.457Z,100579.69
2022-09-03T10:10:50.835Z,100578.06
2022-09-03T10:13:43.843Z,100576.00
2022-09-03T10:16:36.523Z,100560.69
2022-09-03T10:19:34.538Z,100559.78
2022-09-03T10:22:23.230Z,100560.94
2022-09-03T10:25:10.862Z,100565.19
2022-09-03T10:28:02.879Z,100558.59
2022-09-03T10:31:29.813Z,100566.41
2022-09-03T10:34:37.111Z,100569.97
2022-09-03T10:38:03.133Z,100564.75
2022-09-03T10:41:21.209Z,100547.03
2022-09-03T10:44:22.914Z,100556.63
2022-09-03T10:47:37.740Z,100551.97
2022-09-03T10:50:34.170Z,100553.56
2022-09-03T10:53:34.888Z,100550.69
2022-09-03T10:56:34.041Z,100542.97
2022-09-03T10:59:47.978Z,100545.84
2022-09-03T11:03:03.172Z,100552.47
2022-09-03T11:05:57.413Z,100556.06
2022-09-03T11:08:51.541Z,100554.72
2022-09-03T11:11:45.109Z,100543.72
2022-09-03T11:14:44.496Z,100545.94
2022-09-03T11:17:39.929Z,100544.03
2022-09-03T11:20:27.369Z,100541.22
2022-09-03T11:23:16.301Z,100538.97
2022-09-03T11:26:08.869Z,100542.31
2022-09-03T11:29:43.444Z,100534.44
2022-09-03T11:32:36.447Z,100531.00
2022-09-03T11:35:32.712Z,100522.69
2022-09-03T11:38:24.560Z,100523.63
2022-09-03T11:41:15.673Z,100514.59
2022-09-03T11:44:18.764Z,100516.47
2022-09-03T11:47:37.765Z,100508.31
2022-09-03T11:50:30.742Z,100502.31
2022-09-03T11:53:28.158Z,100500.75
2022-09-03T11:56:19.553Z,100504.13
2022-09-03T11:59:13.630Z,100497.06
2022-09-03T12:02:06.214Z,100493.78
2022-09-03T12:05:08.817Z,100489.91
2022-09-03T12:08:15.737Z,100489.66
2022-09-03T12:11:24.948Z,100496.59
2022-09-03T12:14:41.616Z,100488.09
2022-09-03T12:17:47.755Z,100483.13
2022-09-03T12:20:35.025Z,100485.66
2022-09-03T12:23:34.357Z,100483.53
2022-09-03T12:26:24.682Z,100488.53
2022-09-03T12:29:27.985Z,100486.91
2022-09-03T12:32:16.043Z,100486.97
2022-09-03T12:38:40.657Z,100495.22
2022-09-03T12:41:32.454Z,100487.75
2022-09-03T12:44:32.336Z,100497.22
2022-09-03T12:47:38.807Z,100489.28
2022-09-03T12:50:27.152Z,100501.41
2022-09-03T12:53:21.725Z,100490.13
2022-09-03T12:56:11.036Z,100491.19
2022-09-03T12:59:01.561Z,100485.41
2022-09-03T13:01:58.594Z,100485.97
2022-09-03T13:04:47.140Z,100481.06
2022-09-03T13:07:38.194Z,100485.22
2022-09-03T13:10:38.368Z,100475.00
2022-09-03T13:13:28.272Z,100470.59
2022-09-03T13:16:30.914Z,100473.94
2022-09-03T13:19:58.337Z,100456.81
2022-09-03T13:23:01.102Z,100463.75
2022-09-03T13:26:16.201Z,100466.78
2022-09-03T13:29:24.347Z,100462.09
2022-09-03T13:32:26.479Z,100466.78
2022-09-03T13:35:32.296Z,100460.72
2022-09-03T13:39:06.316Z,100463.47
2022-09-03T13:42:26.292Z,100466.47
2022-09-03T13:45:26.771Z,100462.34
2022-09-03T13:48:39.807Z,100470.06
2022-09-03T13:51:29.815Z,100466.19
2022-09-03T13:54:48.229Z,100460.44
2022-09-03T13:57:46.202Z,100467.88
2022-09-03T14:00:44.332Z,100459.59
2022-09-03T14:03:34.583Z,100461.81
2022-09-03T14:06:27.969Z,100461.25
2022-09-03T14:09:18.187Z,100463.44
2022-09-03T14:12:23.769Z,100461.22
2022-09-03T14:15:17.980Z,100463.69
2022-09-03T14:18:24.104Z,100463.75
2022-09-03T14:21:24.700Z,100475.06
2022-09-03T14:24:15.317Z,100477.53
2022-09-03T14:27:04.589Z,100467.56
2022-09-03T14:29:58.617Z,100463.97
2022-09-03T14:32:56.961Z,100459.31
2022-09-03T14:36:04.655Z,100457.06
2022-09-03T14:39:18.251Z,100448.50
2022-09-03T14:42:31.626Z,100465.06
2022-09-03T14:45:34.327Z,100466.66
2022-09-03T14:48:47.256Z,100467.22
2022-09-03T14:52:03.431Z,100461.16
2022-09-03T14:55:15.148Z,100468.94
2022-09-03T14:58:14.493Z,100472.56
2022-09-03T15:01:03.794Z,100468.44
2022-09-03T15:04:03.240Z,100463.97
2022-09-03T15:07:05.598Z,100467.03
2022-09-03T15:10:21.705Z,100462.88
2022-09-03T15:13:32.371Z,100466.75
2022-09-03T15:16:47.772Z,100471.72
2022-09-03T15:19:55.836Z,100467.34
2022-09-03T15:23:01.664Z,100469.28
2022-09-03T15:26:08.398Z,100469.53
2022-09-03T15:29:11.523Z,100468.44
2022-09-03T15:32:08.147Z,100469.84
2022-09-03T15:35:07.689Z,100479.19
2022-09-03T15:37:57.752Z,100477.81
2022-09-03T15:40:45.392Z,100472.88
2022-09-03T15:43:34.246Z,100478.09
2022-09-03T15:46:41.637Z,100477.28
2022-09-03T15:50:10.764Z,100481.69
2022-09-03T15:53:04.985Z,100485.25
2022-09-03T15:56:30.017Z,100485.53
2022-09-03T15:59:32.961Z,100498.78
2022-09-03T16:02:31.730Z,100498.78
2022-09-03T16:05:35.154Z,100501.53
2022-09-03T16:08:43.561Z,100508.41
2022-09-03T16:11:52.052Z,100517.50
2022-09-03T16:14:46.815Z,100520.78
2022-09-03T16:17:39.414Z,100526.28
2022-09-03T16:20:57.070Z,100537.03
2022-09-03T16:24:05.679Z,100542.00
2022-09-03T16:27:03.088Z,100527.59
2022-09-03T16:30:13.941Z,100530.66
2022-09-03T16:33:28.174Z,100534.53
2022-09-03T16:36:39.672Z,100536.69
2022-09-03T16:40:06.160Z,100532.97
2022-09-03T16:43:13.372Z,100539.78
2022-09-03T16:46:21.628Z,100534.22
2022-09-03T16:49:38.495Z,100546.91
2022-09-03T16:52:59.197Z,100546.31
2022-09-03T16:55:57.255Z,100550.16
2022-09-03T16:58:52.773Z,100541.75
2022-09-03T17:01:57.498Z,100557.38
2022-09-03T17:05:12.508Z,100561.56
2022-09-03T17:08:14.401Z,100569.81
2022-09-03T17:11:11.731Z,100561.47
2022-09-03T17:14:43.924Z,100556.91
2022-09-03T17:17:57.233Z,100562.69
2022-09-03T17:21:27.273Z,100563.09
2022-09-03T17:24:37.571Z,100569.34
2022-09-03T17:27:50.332Z,100560.38
2022-09-03T17:31:10.237Z,100571.06
2022-09-03T17:34:33.096Z,100576.22
2022-09-03T17:38:01.516Z,100577.72
2022-09-03T17:41:19.732Z,100582.53
2022-09-03T17:44:23.800Z,100586.22
2022-09-03T17:47:32.740Z,100582.78
2022-09-03T17:50:25.985Z,100580.09
2022-09-03T17:53:19.677Z,100590.81
2022-09-03T17:56:20.628Z,100594.97
2022-09-03T17:59:10.509Z,100600.56
2022-09-03T18:02:07.878Z,100592.44
2022-09-03T18:05:04.687Z,100604.69
2022-09-03T18:08:20.056Z,100602.84
2022-09-03T18:11:11.896Z,100604.50
2022-09-03T18:14:05.290Z,100592.88
2022-09-03T18:17:06.560Z,100592.97
2022-09-03T18:20:23.843Z,100595.13
2022-09-03T18:23:39.046Z,100604.91
2022-09-03T18:26:50.885Z,100620.41
2022-09-03T18:30:07.157Z,100623.03
2022-09-03T18:33:13.021Z,100627.47
2022-09-03T18:36:18.530Z,100626.63
2022-09-03T18:39:34.858Z,100630.69
2022-09-03T18:43:10.071Z,100636.44
2022-09-03T18:50:16.605Z,100650.47
2022-09-03T18:53:33.089Z,100648.44
2022-09-03T18:56:55.563Z,100657.16
2022-09-03T19:00:09.352Z,100662.41
2022-09-03T19:03:28.774Z,100666.22
2022-09-03T19:06:35.012Z,100673.00
2022-09-03T19:10:04.027Z,100674.72
2022-09-03T19:13:26.285Z,100679.63
2022-09-03T19:16:52.381Z,100682.75
2022-09-03T19:20:19.462Z,100675.72
2022-09-03T19:23:25.263Z,100676.19
2022-09-03T19:26:50.529Z,100686.81
2022-09-03T19:30:26.677Z,100696.94
2022-09-03T19:33:57.240Z,100692.63
2022-09-03T19:37:28.372Z,100692.06
2022-09-03T19:40:57.301Z,100707.28
2022-09-03T19:44:39.094Z,100693.72
2022-09-03T19:48:11.310Z,100699.94
2022-09-03T19:51:50.533Z,100709.47
2022-09-03T19:54:57.845Z,100712.91
2022-09-03T19:58:25.892Z,100711.50
2022-09-03T20:01:36.023Z,100706.25
2022-09-03T20:05:02.900Z,100713.63
2022-09-03T20:08:13.194Z,100717.06
2022-09-03T20:11:02.257Z,100709.94
2022-09-03T20:14:08.884Z,100720.91
2022-09-03T20:17:26.833Z,100719.69
2022-09-03T20:20:44.613Z,100717.88
2022-09-03T20:23:50.800Z,100719.66
2022-09-03T20:27:09.473Z,100720.72
2022-09-03T20:30:04.005Z,100725.25
2022-09-03T20:33:12.478Z,100725.50
2022-09-03T20:36:06.504Z,100730.00
2022-09-03T20:39:25.345Z,100727.50
2022-09-03T20:42:40.690Z,100732.50
2022-09-03T20:45:44.500Z,100727.03
2022-09-03T20:49:15.183Z,100722.03
2022-09-03T20:52:08.313Z,100730.47
2022-09-03T20:55:11.199Z,100733.44
2022-09-03T20:58:14.834Z,100737.13
2022-09-03T21:01:22.588Z,100738.81
2022-09-03T21:04:38.271Z,100740.13
2022-09-03T21:07:43.097Z,100740.84
2022-09-03T21:10:47.935Z,100749.84
2022-09-03T21:13:54.070Z,100754.59
2022-09-03T21:16:53.399Z,100744.34
2022-09-03T21:19:56.458Z,100743.66
2022-09-03T21:22:55.881Z,100738.31
2022-09-03T21:25:48.874Z,100740.81
2022-09-03T21:28:40.740Z,100750.28
2022-09-03T21:31:40.371Z,100741.75
2022-09-03T21:34:39.413Z,100744.94
2022-09-03T21:37:28.130Z,100751.25
2022-09-03T21:40:19.907Z,100751.84
2022-09-03T21:43:19.109Z,100754.00
2022-09-03T21:46:27.797Z,100757.78
2022-09-03T21:49:22.861Z,100758.84
2022-09-03T21:52:24.345Z,100749.91
2022-09-03T21:55:18.132Z,100760.84
2022-09-03T21:58:19.000Z,100746.56
2022-09-03T22:01:14.945Z,100758.34
2022-09-03T22:04:02.285Z,100753.50
2022-09-03T22:07:30.801Z,100755.63
2022-09-03T22:10:52.713Z,100756.94
2022-09-03T22:14:07.348Z,100759.50
2022-09-03T22:16:59.393Z,100769.41
2022-09-03T22:19:46.756Z,100765.81
2022-09-03T22:22:48.945Z,100774.88
2022-09-03T22:26:03.136Z,100766.66
2022-09-03T22:29:15.226Z,100773.41
2022-09-03T22:32:23.131Z,100767.59
2022-09-03T22:35:25.597Z,100770.56
2022-09-03T22:38:28.493Z,100770.41
2022-09-03T22:41:53.917Z,100771.25
2022-09-03T22:45:18.239Z,100774.44
2022-09-03T22:48:11.499Z,100790.41
2022-09-03T22:51:00.848Z,100785.63
2022-09-03T22:54:18.181Z,100792.97
2022-09-03T22:57:06.779Z,100787.50
2022-09-03T23:00:04.917Z,100789.84
2022-09-03T23:03:07.471Z,100795.56
2022-09-03T23:06:07.680Z,100797.59
2022-09-03T23:09:02.220Z,100801.63
2022-09-03T23:11:52.981Z,100791.31
2022-09-03T23:14:53.946Z,100796.31
2022-09-03T23:17:49.834Z,100793.44
2022-09-03T23:20:42.074Z,100795.09
2022-09-03T23:23:37.305Z,100803.44
2022-09-03T23:26:37.337Z,100800.09
2022-09-03T23:29:32.556Z,100797.22
2022-09-03T23:32:20.016Z,100799.81
2022-09-03T23:35:17.719Z,100807.88
2022-09-03T23:38:11.407Z,100807.41
2022-09-03T23:41:04.039Z,100795.88
2022-09-03T23:44:30.932Z,100806.66
2022-09-03T23:47:32.980Z,100806.25
2022-09-03T23:50:29.274Z,100813.63
2022-09-03T23:53:31.595Z,100812.19
2022-09-03T23:56:44.903Z,100811.50
